Time;durP1;ratioP1;P1;durP2;ratioP2;P2;SDS_P1;SDS_P2;PMS_P1;PMS_P2;Temp;Humidity;BMP_temperature;BMP_pressure;BME280_temperature;BME280_humidity;BME280_pressure;Samples;Min_cycle;Max_cycle;Signal;HPM_P1;HPM_P2
2022/04/07 00:00:09;;;;;;;18.58;11.45;;;;;;;11.58;58.09;98280.50;5063908;28;20045;-75
2022/04/07 00:02:38;;;;;;;16.17;9.48;;;;;;;11.58;58.04;98279.69;5062793;28;20047;-75
2022/04/07 00:05:06;;;;;;;17.55;11.00;;;;;;;11.59;57.94;98276.84;5064157;28;20079;-72
2022/04/07 00:07:33;;;;;;;18.92;12.18;;;;;;;11.60;57.68;98267.13;5062670;28;20419;-76
2022/04/07 00:10:00;;;;;;;19.77;11.65;;;;;;;11.58;57.93;98266.47;5057794;28;20048;-72
2022/04/07 00:12:27;;;;;;;18.20;10.82;;;;;;;11.57;57.84;98262.97;5063423;28;20124;-74
2022/04/07 00:14:54;;;;;;;18.25;10.40;;;;;;;11.56;57.79;98266.63;5064425;28;20440;-71
2022/04/07 00:17:21;;;;;;;16.48;9.57;;;;;;;11.55;57.80;98254.38;5065757;28;20048;-77
2022/04/07 00:19:49;;;;;;;14.52;9.75;;;;;;;11.56;57.79;98258.69;5062332;28;20128;-74
2022/04/07 00:22:16;;;;;;;17.58;10.45;;;;;;;11.58;57.69;98258.53;5063150;28;20128;-77
2022/04/07 00:31:27;;;;;;;17.30;10.48;;;;;;;11.78;57.17;98245.78;5065588;28;20043;-73
2022/04/07 00:33:55;;;;;;;21.95;10.40;;;;;;;11.77;57.15;98252.84;5066780;28;20040;-79
2022/04/07 00:36:23;;;;;;;17.08;9.88;;;;;;;11.80;57.13;98249.06;5065409;28;20127;-74
2022/04/07 00:38:50;;;;;;;16.55;10.32;;;;;;;11.84;57.03;98245.09;5066956;28;20043;-80
2022/04/07 00:41:17;;;;;;;19.08;11.27;;;;;;;11.85;56.98;98241.47;5068866;28;20041;-73
2022/04/07 00:43:51;;;;;;;17.17;8.77;;;;;;;11.86;57.11;98241.25;5066223;28;20631;-75
2022/04/07 00:46:18;;;;;;;17.17;10.27;;;;;;;11.85;56.87;98236.16;5066078;28;20048;-75
2022/04/07 00:48:45;;;;;;;14.20;9.45;;;;;;;11.84;56.92;98235.31;5065536;28;20040;-73
2022/04/07 00:51:12;;;;;;;14.88;9.00;;;;;;;11.86;56.85;98230.69;5069263;28;20040;-77
2022/04/07 00:53:41;;;;;;;16.35;9.80;;;;;;;11.90;56.84;98231.19;5061263;28;20066;-74
2022/04/07 00:56:08;;;;;;;14.40;8.82;;;;;;;11.94;56.77;98229.88;5069243;28;20053;-73
2022/04/07 00:58:36;;;;;;;12.25;8.70;;;;;;;11.98;56.80;98225.09;5069935;28;20080;-74
2022/04/07 01:01:03;;;;;;;21.52;12.90;;;;;;;11.99;56.70;98224.06;5069849;28;20116;-75
2022/04/07 01:03:30;;;;;;;13.18;8.50;;;;;;;12.02;56.70;98229.03;5066695;28;20141;-72
2022/04/07 01:05:59;;;;;;;15.23;9.50;;;;;;;12.03;56.55;98231.50;5067465;28;20052;-75
2022/04/07 01:08:26;;;;;;;14.45;10.02;;;;;;;12.02;56.66;98229.03;5069420;28;20071;-74
2022/04/07 01:10:55;;;;;;;17.95;9.88;;;;;;;12.05;56.56;98223.41;5070084;28;20127;-73
2022/04/07 01:13:22;;;;;;;13.52;9.32;;;;;;;12.04;56.52;98227.03;5068420;28;20477;-74
2022/04/07 01:15:49;;;;;;;15.18;9.18;;;;;;;12.03;56.56;98213.00;5053137;28;20140;-74
2022/04/07 01:18:17;;;;;;;14.32;9.85;;;;;;;11.97;56.66;98216.28;5071178;28;20040;-77
2022/04/07 01:20:44;;;;;;;17.35;9.10;;;;;;;11.92;56.88;98208.06;5072692;28;20044;-77
2022/04/07 01:23:11;;;;;;;12.18;8.23;;;;;;;11.88;56.88;98205.91;5070676;28;20044;-74
2022/04/07 01:25:40;;;;;;;14.85;10.38;;;;;;;11.80;57.08;98212.84;5070539;28;20041;-73
2022/04/07 01:28:07;;;;;;;13.60;9.65;;;;;;;11.77;57.14;98217.66;5052187;28;20190;-74
2022/04/07 01:30:34;;;;;;;18.60;11.18;;;;;;;11.70;57.33;98209.56;5067600;28;20049;-75
2022/04/07 01:33:03;;;;;;;14.90;9.10;;;;;;;11.66;57.33;98203.78;5064914;28;20147;-76
2022/04/07 01:35:31;;;;;;;15.35;10.05;;;;;;;11.63;57.36;98205.94;5066784;28;20071;-75
2022/04/07 01:38:00;;;;;;;15.77;9.75;;;;;;;11.61;57.48;98200.00;5065521;28;20070;-75
2022/04/07 01:40:30;;;;;;;16.63;10.63;;;;;;;11.58;57.69;98195.88;5066001;28;20047;-76
2022/04/07 01:43:00;;;;;;;17.88;10.57;;;;;;;11.56;57.53;98195.22;5066324;28;20059;-76
2022/04/07 01:45:30;;;;;;;17.00;10.18;;;;;;;11.52;57.57;98193.91;5067658;28;20044;-76
2022/04/07 01:47:58;;;;;;;13.85;9.52;;;;;;;11.51;57.88;98194.09;5066430;28;20088;-74
2022/04/07 01:50:27;;;;;;;16.98;11.25;;;;;;;11.48;57.85;98189.94;5067027;28;20041;-76
2022/04/07 01:52:54;;;;;;;14.73;9.68;;;;;;;11.49;57.68;98194.25;5068015;28;20183;-75
2022/04/07 01:55:22;;;;;;;18.48;11.40;;;;;;;11.48;57.77;98184.66;5056353;28;20045;-77
2022/04/07 01:57:52;;;;;;;15.88;10.20;;;;;;;11.56;57.67;98197.03;5071493;28;20040;-74
2022/04/07 02:00:21;;;;;;;19.52;11.18;;;;;;;11.60;57.49;98195.72;5068244;28;20125;-75
2022/04/07 02:02:49;;;;;;;17.80;10.02;;;;;;;11.65;57.52;98188.13;5068097;28;20304;-74
2022/04/07 02:05:16;;;;;;;16.73;9.82;;;;;;;11.66;57.40;98195.03;5068105;28;20044;-76
2022/04/07 02:07:44;;;;;;;22.25;12.55;;;;;;;11.65;57.45;98186.28;5068067;28;20146;-76
2022/04/07 02:10:13;;;;;;;21.40;12.45;;;;;;;11.62;57.50;98180.50;5065274;28;20047;-77
2022/04/07 02:12:41;;;;;;;16.92;10.70;;;;;;;11.59;57.66;98163.16;5066442;28;20063;-75
2022/04/07 02:15:09;;;;;;;17.52;10.45;;;;;;;11.56;57.72;98183.81;5066321;28;20044;-76
2022/04/07 02:17:38;;;;;;;18.70;10.65;;;;;;;11.55;57.80;98169.78;5067914;28;20092;-76
2022/04/07 02:20:08;;;;;;;17.52;11.93;;;;;;;11.56;57.64;98171.44;5070352;28;20048;-77
2022/04/07 02:22:35;;;;;;;17.50;10.57;;;;;;;11.55;57.68;98168.97;5067151;28;20126;-77
2022/04/07 02:25:02;;;;;;;16.23;10.27;;;;;;;11.55;57.71;98167.13;5063474;28;20051;-76
2022/04/07 02:27:36;;;;;;;18.58;11.45;;;;;;;11.55;57.71;98163.66;5065370;28;20101;-72
2022/04/07 02:30:05;;;;;;;15.82;10.48;;;;;;;11.51;57.79;98162.38;5063568;28;20041;-75
2022/04/07 02:32:33;;;;;;;16.52;10.95;;;;;;;11.44;57.82;98155.09;5065155;28;20123;-76
2022/04/07 02:35:02;;;;;;;20.33;10.80;;;;;;;11.36;57.93;98149.84;5070277;28;20107;-75
2022/04/07 02:37:30;;;;;;;14.35;9.07;;;;;;;11.32;58.06;98153.78;5070644;28;20128;-76
2022/04/07 02:39:57;;;;;;;17.80;10.20;;;;;;;11.24;58.30;98146.72;5068603;28;20131;-76
2022/04/07 02:42:24;;;;;;;16.05;12.43;;;;;;;11.19;58.37;98146.38;5070767;28;20099;-76
2022/04/07 02:44:51;;;;;;;17.13;11.32;;;;;;;11.12;58.46;98148.03;5074625;28;20112;-76
2022/04/07 02:47:18;;;;;;;16.33;11.48;;;;;;;11.08;58.52;98146.72;5072949;28;20040;-76
2022/04/07 02:49:46;;;;;;;17.55;9.68;;;;;;;10.99;58.70;98142.44;5070504;28;20041;-76
2022/04/07 02:52:15;;;;;;;13.50;11.52;;;;;;;10.94;58.76;98142.91;5069954;28;20123;-72
2022/04/07 02:54:42;;;;;;;16.35;10.30;;;;;;;10.88;58.88;98133.03;5064303;28;20051;-72
2022/04/07 02:57:08;;;;;;;15.45;10.63;;;;;;;10.84;58.77;98135.19;5064522;28;20640;-73
2022/04/07 02:59:35;;;;;;;16.13;9.43;;;;;;;10.76;58.93;98129.88;5064762;28;20056;-72
2022/04/07 03:02:03;;;;;;;14.40;9.95;;;;;;;10.74;59.07;98128.41;5064814;28;20056;-71
2022/04/07 03:04:30;;;;;;;19.77;11.68;;;;;;;10.69;58.90;98132.34;5046692;28;20049;-71
2022/04/07 03:06:57;;;;;;;16.70;11.50;;;;;;;10.66;59.14;98137.13;5064911;28;20074;-73
2022/04/07 03:09:25;;;;;;;22.70;10.80;;;;;;;10.60;59.08;98125.41;5062661;28;20723;-76
2022/04/07 03:11:52;;;;;;;16.92;11.15;;;;;;;10.58;59.18;98131.84;5064655;28;20055;-75
2022/04/07 03:14:19;;;;;;;15.98;10.48;;;;;;;10.54;59.06;98122.63;5064774;28;20048;-76
2022/04/07 03:16:48;;;;;;;16.27;10.60;;;;;;;10.51;59.25;98127.25;5064692;28;20070;-72
2022/04/07 03:19:16;;;;;;;15.85;9.32;;;;;;;10.46;59.36;98129.53;5063737;28;20060;-74
2022/04/07 03:21:44;;;;;;;16.30;9.18;;;;;;;10.46;59.31;98121.63;5065662;28;20055;-72
2022/04/07 03:24:11;;;;;;;14.80;10.13;;;;;;;10.42;59.38;98122.09;5063717;28;20041;-71
2022/04/07 03:26:40;;;;;;;20.00;10.55;;;;;;;10.43;59.31;98129.03;5063451;28;20144;-75
2022/04/07 03:29:07;;;;;;;15.65;11.07;;;;;;;10.40;59.30;98124.91;5065798;28;20048;-74
2022/04/07 03:31:34;;;;;;;17.08;10.77;;;;;;;10.40;59.31;98129.34;5066458;28;20183;-77
2022/04/07 03:34:01;;;;;;;15.27;11.05;;;;;;;10.39;59.31;98131.19;5068239;28;20152;-77
2022/04/07 03:36:28;;;;;;;18.92;10.00;;;;;;;10.39;59.41;98122.41;5064485;28;20813;-71
2022/04/07 03:38:55;;;;;;;16.92;11.45;;;;;;;10.36;59.40;98118.28;5063223;28;20048;-72
2022/04/07 03:41:22;;;;;;;21.15;11.35;;;;;;;10.38;59.22;98113.69;5065194;28;20049;-79
2022/04/07 03:43:50;;;;;;;17.02;9.38;;;;;;;10.35;59.36;98119.28;5065173;28;20663;-76
2022/04/07 03:46:21;;;;;;;16.45;9.68;;;;;;;10.32;59.20;98119.63;5066097;28;20040;-75
2022/04/07 03:48:49;;;;;;;17.48;10.07;;;;;;;10.30;59.48;98122.38;5066691;28;20044;-76
2022/04/07 03:51:16;;;;;;;16.98;9.95;;;;;;;10.30;59.27;98116.28;5067892;28;20047;-79
2022/04/07 03:53:43;;;;;;;14.55;9.65;;;;;;;10.28;59.39;98121.72;5067926;28;20045;-76
2022/04/07 03:56:12;;;;;;;21.30;11.40;;;;;;;10.27;59.45;98117.41;5067561;28;20056;-82
2022/04/07 03:58:39;;;;;;;22.13;12.77;;;;;;;10.28;59.17;98123.50;5065720;28;20059;-76
2022/04/07 04:01:09;;;;;;;19.08;11.15;;;;;;;10.26;59.37;98121.06;5065679;28;20135;-78
2022/04/07 04:03:36;;;;;;;29.73;12.98;;;;;;;10.24;59.27;98123.00;5065688;28;20048;-80
2022/04/07 04:06:03;;;;;;;29.23;11.35;;;;;;;10.22;59.41;98124.16;5065787;28;20068;-79
2022/04/07 04:08:31;;;;;;;22.48;12.80;;;;;;;10.21;59.32;98127.78;5063903;28;20052;-77
2022/04/07 04:10:58;;;;;;;20.45;11.68;;;;;;;10.20;59.29;98126.97;5070284;28;20105;-78
2022/04/07 04:13:28;;;;;;;17.90;11.07;;;;;;;10.17;59.52;98123.81;5070310;28;20438;-77
2022/04/07 04:15:55;;;;;;;16.40;10.45;;;;;;;10.18;59.36;98117.56;5070514;28;20499;-72
2022/04/07 04:18:24;;;;;;;17.85;10.85;;;;;;;10.19;59.42;98119.22;5071224;28;20056;-71
2022/04/07 04:20:51;;;;;;;16.45;10.02;;;;;;;10.22;59.27;98122.34;5069515;28;20497;-70
2022/04/07 04:23:18;;;;;;;17.52;10.55;;;;;;;10.23;59.18;98124.00;5065023;28;20132;-75
2022/04/07 04:25:46;;;;;;;17.40;10.13;;;;;;;10.26;59.34;98133.41;5068103;28;20045;-77
2022/04/07 04:28:13;;;;;;;13.95;9.45;;;;;;;10.30;59.16;98132.13;5078629;28;20079;-77
2022/04/07 04:30:40;;;;;;;15.35;10.75;;;;;;;10.38;59.04;98126.88;5075682;28;20148;-77
2022/04/07 04:33:09;;;;;;;15.43;10.15;;;;;;;10.47;58.94;98131.16;5074104;28;20504;-74
2022/04/07 04:35:37;;;;;;;16.20;9.98;;;;;;;10.61;58.53;98123.63;5064867;28;20087;-77
2022/04/07 04:38:04;;;;;;;18.08;10.15;;;;;;;10.78;58.28;98129.72;5071842;28;20040;-78
2022/04/07 04:40:31;;;;;;;17.33;10.25;;;;;;;11.00;57.92;98128.22;5068667;28;20084;-77
2022/04/07 04:42:59;;;;;;;16.52;9.70;;;;;;;11.21;57.58;98122.44;5069989;28;20096;-76
2022/04/07 04:45:26;;;;;;;18.27;11.40;;;;;;;11.35;57.05;98126.22;5070990;28;20588;-76
2022/04/07 04:47:53;;;;;;;19.00;11.93;;;;;;;11.43;57.05;98139.41;5070113;28;20083;-75
2022/04/07 04:50:21;;;;;;;19.65;12.77;;;;;;;11.52;56.87;98130.44;5070728;28;20148;-75
2022/04/07 04:52:49;;;;;;;16.27;11.10;;;;;;;11.64;56.75;98129.09;5071313;28;20451;-72
2022/04/07 04:55:16;;;;;;;17.80;10.63;;;;;;;11.79;56.46;98133.69;5069622;28;20045;-74
2022/04/07 04:57:43;;;;;;;14.75;9.73;;;;;;;11.89;56.22;98114.97;5073214;28;20286;-74
2022/04/07 05:00:12;;;;;;;13.90;9.93;;;;;;;11.92;56.23;98119.94;5069850;28;20055;-79
2022/04/07 05:02:39;;;;;;;16.35;10.23;;;;;;;12.04;56.13;98119.38;5067251;28;20059;-74
2022/04/07 05:05:09;;;;;;;17.50;11.13;;;;;;;12.16;55.76;98113.72;5072992;28;20052;-81
2022/04/07 05:07:36;;;;;;;17.10;10.65;;;;;;;12.29;55.40;98111.31;5078975;28;20048;-74
2022/04/07 05:10:06;;;;;;;17.65;10.02;;;;;;;12.41;55.25;98112.56;5066456;28;20131;-76
2022/04/07 05:12:32;;;;;;;18.67;11.23;;;;;;;12.49;55.04;98116.16;5064889;28;20052;-75
2022/04/07 05:15:00;;;;;;;14.43;9.80;;;;;;;12.54;55.00;98111.97;5063559;28;20607;-77
2022/04/07 05:17:27;;;;;;;12.38;8.55;;;;;;;12.58;54.69;98113.25;5064295;28;20051;-72
2022/04/07 05:19:54;;;;;;;22.50;10.40;;;;;;;12.59;54.76;98117.56;5064430;28;20132;-72
2022/04/07 05:22:21;;;;;;;15.10;9.60;;;;;;;12.62;54.66;98108.44;5056884;28;20055;-73
2022/04/07 05:24:48;;;;;;;19.08;11.32;;;;;;;12.69;54.45;98108.56;5063855;28;20041;-74
2022/04/07 05:27:17;;;;;;;18.60;11.32;;;;;;;12.70;54.28;98111.03;5065809;28;20051;-77
2022/04/07 05:29:44;;;;;;;15.95;9.48;;;;;;;12.71;54.27;98111.84;5064389;28;20044;-72
2022/04/07 05:32:11;;;;;;;16.98;9.23;;;;;;;12.68;54.39;98107.75;5066088;28;20072;-75
2022/04/07 05:34:39;;;;;;;14.40;9.65;;;;;;;12.67;54.16;98116.66;5066546;28;20051;-75
2022/04/07 05:37:06;;;;;;;15.23;9.50;;;;;;;12.70;54.22;98121.63;5064217;28;20140;-75
2022/04/07 05:39:33;;;;;;;12.20;7.40;;;;;;;12.78;54.02;98113.63;5064158;28;20070;-74
2022/04/07 05:42:00;;;;;;;14.32;7.88;;;;;;;12.89;53.93;98117.69;5065651;28;20124;-73
2022/04/07 05:44:28;;;;;;;16.55;9.88;;;;;;;12.93;53.76;98115.50;5064708;28;20131;-74
2022/04/07 05:46:55;;;;;;;17.77;9.32;;;;;;;13.02;53.66;98122.38;5065706;28;20063;-75
2022/04/07 05:49:22;;;;;;;18.45;9.82;;;;;;;13.12;53.38;98109.66;5064005;28;20154;-76
2022/04/07 05:51:53;;;;;;;15.85;10.60;;;;;;;13.16;53.22;98110.13;5063153;28;20137;-76
2022/04/07 05:54:20;;;;;;;17.65;10.20;;;;;;;13.19;53.28;98110.59;5064365;28;20052;-77
2022/04/07 05:56:47;;;;;;;17.92;9.70;;;;;;;13.15;53.25;98104.00;5062985;28;20131;-76
2022/04/07 05:59:14;;;;;;;14.35;9.15;;;;;;;13.13;53.24;98105.22;5062831;28;20455;-77
2022/04/07 06:01:43;;;;;;;18.73;9.80;;;;;;;13.18;53.21;98098.34;5062742;28;20415;-77
2022/04/07 06:04:09;;;;;;;15.93;10.07;;;;;;;13.19;53.14;98099.19;5064342;28;20611;-76
2022/04/07 06:06:36;;;;;;;14.65;9.93;;;;;;;13.27;53.10;98114.16;5064897;28;20048;-77
2022/04/07 06:09:05;;;;;;;16.02;9.20;;;;;;;13.33;52.79;98094.94;5067015;28;20135;-78
2022/04/07 06:11:32;;;;;;;18.50;10.07;;;;;;;13.41;52.70;98094.81;5069647;28;20140;-79
2022/04/07 06:13:59;;;;;;;19.60;10.48;;;;;;;13.54;52.57;98096.84;5066833;28;20104;-78
2022/04/07 06:16:29;;;;;;;20.52;10.70;;;;;;;13.61;52.39;98094.28;5067293;28;20155;-78
2022/04/07 06:18:58;;;;;;;20.42;11.70;;;;;;;13.70;52.31;98103.78;5055605;28;20592;-80
2022/04/07 06:21:29;;;;;;;19.20;11.57;;;;;;;13.67;52.20;98101.53;5083256;28;20104;-82
2022/04/07 06:23:57;;;;;;;16.23;10.25;;;;;;;13.74;52.09;98105.09;5082053;28;20059;-80
2022/04/07 06:26:25;;;;;;;21.55;11.65;;;;;;;13.68;52.31;98089.88;5092519;28;20051;-81
2022/04/07 06:28:52;;;;;;;23.38;13.35;;;;;;;13.63;52.49;98095.75;5079510;28;20041;-79
2022/04/07 06:31:19;;;;;;;19.05;12.57;;;;;;;13.58;52.55;98095.50;5072835;28;20052;-80
2022/04/07 06:33:46;;;;;;;20.42;12.63;;;;;;;13.62;52.62;98093.28;5074936;28;20048;-79
2022/04/07 06:36:14;;;;;;;20.92;12.00;;;;;;;13.59;52.64;98094.47;5073159;28;20054;-80
2022/04/07 06:38:42;;;;;;;19.67;12.38;;;;;;;13.66;52.56;98094.56;5080259;28;20079;-79
2022/04/07 06:41:09;;;;;;;18.88;12.27;;;;;;;13.71;52.60;98092.19;5080753;28;20104;-79
2022/04/07 06:43:36;;;;;;;18.63;12.15;;;;;;;13.85;52.17;98093.19;5054403;28;20076;-79
2022/04/07 06:46:03;;;;;;;15.32;11.65;;;;;;;14.04;52.07;98086.44;5072979;28;20148;-78
2022/04/07 06:48:31;;;;;;;25.98;13.95;;;;;;;14.12;51.85;98087.16;5078052;28;20048;-80
2022/04/07 06:50:58;;;;;;;19.33;11.60;;;;;;;14.24;51.65;98086.66;5064457;28;20044;-77
2022/04/07 06:53:27;;;;;;;17.85;10.68;;;;;;;14.25;51.64;98081.19;5080829;28;20119;-80
2022/04/07 06:55:54;;;;;;;21.90;11.50;;;;;;;14.29;51.48;98087.75;5077409;28;20322;-78
2022/04/07 06:58:21;;;;;;;18.80;11.40;;;;;;;14.41;51.14;98081.97;5066694;28;20109;-77
2022/04/07 07:00:48;;;;;;;17.05;10.75;;;;;;;14.44;51.30;98084.22;5079566;28;20037;-79
2022/04/07 07:03:16;;;;;;;16.33;11.05;;;;;;;14.51;51.42;98077.97;5077360;28;20083;-80
2022/04/07 07:05:44;;;;;;;20.02;11.10;;;;;;;14.71;50.71;98078.19;5078485;28;20045;-79
2022/04/07 07:08:14;;;;;;;15.50;10.93;;;;;;;14.84;50.33;98082.78;5074966;28;20106;-78
2022/04/07 07:10:44;;;;;;;16.15;10.80;;;;;;;14.88;50.15;98083.22;5072430;28;20033;-78
2022/04/07 07:13:11;;;;;;;16.58;10.23;;;;;;;14.93;50.19;98079.97;5075103;28;20552;-77
2022/04/07 07:15:39;;;;;;;13.57;9.43;;;;;;;15.06;49.88;98075.59;5079752;28;20201;-78
2022/04/07 07:18:07;;;;;;;16.65;9.27;;;;;;;15.19;49.65;98066.88;5070567;28;20047;-80
2022/04/07 07:20:35;;;;;;;15.60;9.93;;;;;;;15.19;49.81;98068.72;5065452;28;20089;-80
2022/04/07 07:23:03;;;;;;;14.40;9.25;;;;;;;15.17;49.63;98070.75;5065187;28;20566;-78
2022/04/07 07:25:31;;;;;;;18.92;10.63;;;;;;;15.13;49.87;98074.84;5065020;28;20067;-80
2022/04/07 07:28:01;;;;;;;15.57;10.15;;;;;;;15.13;49.63;98074.84;5064813;28;20048;-79
2022/04/07 07:30:33;;;;;;;15.70;9.00;;;;;;;15.20;49.43;98073.03;5065472;28;20047;-81
2022/04/07 07:33:01;;;;;;;16.98;10.38;;;;;;;15.29;49.27;98064.69;5066373;28;20040;-79
2022/04/07 07:35:29;;;;;;;16.15;9.93;;;;;;;15.37;49.03;98066.38;5064930;28;20138;-77
2022/04/07 07:37:58;;;;;;;17.17;9.98;;;;;;;15.36;49.10;98062.09;5064690;28;20147;-78
2022/04/07 07:40:28;;;;;;;14.57;9.65;;;;;;;15.51;48.87;98055.81;5063777;28;20052;-80
2022/04/07 07:42:57;;;;;;;14.90;9.43;;;;;;;15.80;48.33;98063.56;5064893;28;20638;-75
2022/04/07 07:45:27;;;;;;;14.60;8.77;;;;;;;16.01;47.93;98061.81;5065897;28;20127;-78
2022/04/07 07:47:54;;;;;;;16.48;10.32;;;;;;;16.23;47.47;98060.63;5067981;28;20083;-78
2022/04/07 07:50:22;;;;;;;12.85;8.90;;;;;;;16.48;46.85;98056.59;5068358;28;20040;-77
2022/04/07 07:52:50;;;;;;;12.45;8.95;;;;;;;16.69;46.68;98068.88;5071921;28;20127;-79
2022/04/07 07:55:17;;;;;;;14.95;10.43;;;;;;;17.02;46.17;98062.78;5071558;28;20140;-79
2022/04/07 07:57:45;;;;;;;18.98;9.15;;;;;;;17.32;45.78;98063.13;5070897;28;20139;-79
2022/04/07 08:00:17;;;;;;;13.27;9.48;;;;;;;17.54;45.29;98050.38;5070652;28;20094;-80
2022/04/07 08:02:45;;;;;;;14.18;8.77;;;;;;;17.72;44.92;98050.50;5072148;28;20611;-78
2022/04/07 08:05:13;;;;;;;15.07;8.52;;;;;;;18.02;44.63;98046.50;5077078;28;20112;-79
2022/04/07 08:07:41;;;;;;;13.02;8.68;;;;;;;18.15;44.23;98046.44;5077987;28;20049;-78
2022/04/07 08:10:09;;;;;;;11.70;7.00;;;;;;;17.94;44.20;98045.72;5068495;28;20055;-81
2022/04/07 08:12:36;;;;;;;10.25;6.38;;;;;;;17.68;44.21;98032.44;5071842;28;20076;-83
2022/04/07 08:15:05;;;;;;;10.90;7.80;;;;;;;17.48;44.33;98033.31;5072377;28;20480;-81
2022/04/07 08:17:32;;;;;;;8.18;6.38;;;;;;;17.40;44.30;98041.56;5080621;28;20044;-83
2022/04/07 08:20:02;;;;;;;13.65;5.82;;;;;;;17.57;43.91;98036.56;5076181;28;20079;-78
2022/04/07 08:22:30;;;;;;;11.57;6.70;;;;;;;17.57;43.33;98033.91;5080656;28;20110;-78
2022/04/07 08:24:57;;;;;;;13.18;8.85;;;;;;;17.49;43.57;98026.16;5082914;28;20090;-80
2022/04/07 08:27:25;;;;;;;11.52;6.15;;;;;;;17.47;43.50;98022.88;5081882;28;20119;-79
2022/04/07 08:29:52;;;;;;;10.60;7.15;;;;;;;17.34;43.36;98032.56;5086207;28;20048;-79
2022/04/07 08:32:20;;;;;;;9.27;5.82;;;;;;;17.19;43.48;98031.97;5086093;28;20041;-79
2022/04/07 08:34:47;;;;;;;6.68;4.78;;;;;;;17.12;43.11;98031.97;5089265;28;20082;-80
2022/04/07 08:37:15;;;;;;;10.38;5.80;;;;;;;17.23;42.68;98025.16;5086306;28;20052;-80
2022/04/07 08:39:43;;;;;;;14.27;6.80;;;;;;;17.40;42.57;98022.88;5086534;28;20040;-79
2022/04/07 08:42:11;;;;;;;11.10;4.88;;;;;;;17.61;42.47;98015.63;5093766;28;20041;-81
2022/04/07 08:44:38;;;;;;;9.90;5.35;;;;;;;18.01;42.01;98018.97;5090965;28;20064;-80
2022/04/07 08:47:05;;;;;;;8.60;5.72;;;;;;;18.38;41.35;98013.78;5085359;28;20075;-78
2022/04/07 08:49:35;;;;;;;9.63;5.47;;;;;;;18.59;40.29;98017.16;5051164;28;20200;-83
2022/04/07 08:52:03;;;;;;;8.23;4.88;;;;;;;18.64;40.30;98003.94;5085065;28;20047;-80
2022/04/07 08:54:33;;;;;;;10.50;5.88;;;;;;;18.84;40.30;98011.84;5082510;28;20100;-78
2022/04/07 08:57:00;;;;;;;8.45;5.18;;;;;;;19.15;39.72;98007.41;5085806;28;20079;-80
2022/04/07 08:59:28;;;;;;;8.25;4.60;;;;;;;19.19;39.68;98012.09;5071525;28;20071;-82
2022/04/07 09:02:02;;;;;;;7.22;4.38;;;;;;;19.16;39.35;98009.03;5086220;28;20072;-78
2022/04/07 09:04:32;;;;;;;6.50;4.25;;;;;;;19.13;39.04;97994.25;5086109;28;20620;-80
2022/04/07 09:06:59;;;;;;;7.57;4.22;;;;;;;18.93;39.08;97999.81;5082453;28;20055;-82
2022/04/07 09:09:27;;;;;;;7.93;4.72;;;;;;;19.07;39.38;97987.13;5081314;28;20092;-82
2022/04/07 09:11:57;;;;;;;8.15;5.20;;;;;;;19.56;39.07;97988.00;5081068;28;20120;-79
2022/04/07 09:14:24;;;;;;;5.95;3.55;;;;;;;19.83;38.73;97971.63;5080231;28;20091;-80
2022/04/07 09:16:54;;;;;;;9.13;3.85;;;;;;;20.12;38.36;97963.81;5075990;28;20041;-81
2022/04/07 09:19:22;;;;;;;6.53;4.60;;;;;;;20.13;38.01;97949.34;5063144;28;20055;-78
2022/04/07 09:22:04;;;;;;;6.63;4.45;;;;;;;20.06;37.61;97949.47;5068963;28;20045;-76
2022/04/07 09:24:31;;;;;;;14.70;4.85;;;;;;;19.85;37.75;97956.94;5063439;28;20281;-79
2022/04/07 09:27:00;;;;;;;8.32;5.38;;;;;;;19.81;38.04;97960.34;5069989;28;20110;-79
2022/04/07 09:29:38;;;;;;;6.45;4.00;;;;;;;19.72;38.07;97964.34;5067673;28;20048;-78
2022/04/07 09:32:17;;;;;;;6.88;4.05;;;;;;;19.43;38.45;97964.09;5067474;28;20055;-80
2022/04/07 09:34:45;;;;;;;6.43;4.10;;;;;;;19.30;38.25;97954.31;5066190;28;20554;-77
2022/04/07 09:37:14;;;;;;;4.97;4.13;;;;;;;19.41;37.96;97958.94;5067550;28;20131;-79
2022/04/07 09:39:42;;;;;;;6.47;4.13;;;;;;;19.62;38.34;97946.94;5066245;28;20130;-79
2022/04/07 09:42:21;;;;;;;4.20;3.28;;;;;;;19.91;37.34;97946.38;5065958;28;20055;-79
2022/04/07 09:44:52;;;;;;;5.47;4.07;;;;;;;20.02;37.43;97940.22;5067802;28;20123;-77
2022/04/07 09:47:19;;;;;;;6.38;3.75;;;;;;;20.24;37.02;97935.97;5065743;28;20755;-77
2022/04/07 09:49:46;;;;;;;6.50;3.00;;;;;;;20.50;36.47;97917.81;5065100;28;20045;-78
2022/04/07 09:52:13;;;;;;;6.80;4.40;;;;;;;20.76;36.22;97921.94;5069923;28;20131;-76
2022/04/07 09:54:42;;;;;;;6.85;3.63;;;;;;;20.89;35.80;97914.69;5067354;28;20076;-77
2022/04/07 09:57:10;;;;;;;5.57;3.50;;;;;;;20.96;35.52;97901.97;5066298;28;20045;-80
2022/04/07 09:59:41;;;;;;;5.57;3.58;;;;;;;21.00;35.53;97901.25;5065708;28;20074;-78
2022/04/07 10:02:10;;;;;;;5.38;3.45;;;;;;;20.83;35.78;97894.16;5068382;28;20064;-76
2022/04/07 10:04:37;;;;;;;8.48;4.65;;;;;;;20.27;36.20;97891.00;5051428;28;20044;-77
2022/04/07 10:07:08;;;;;;;5.85;3.30;;;;;;;20.30;36.46;97891.34;5072622;28;20575;-77
2022/04/07 10:09:36;;;;;;;4.05;2.97;;;;;;;20.54;35.52;97884.13;5072012;28;20048;-83
2022/04/07 10:12:04;;;;;;;3.75;2.50;;;;;;;19.94;35.99;97873.59;5074939;28;20045;-80
2022/04/07 10:14:34;;;;;;;6.60;3.63;;;;;;;19.83;36.46;97872.53;5069043;28;20087;-79
2022/04/07 10:17:03;;;;;;;6.80;2.75;;;;;;;20.11;35.95;97866.50;5068695;28;20049;-78
2022/04/07 10:19:35;;;;;;;6.22;3.10;;;;;;;20.27;35.78;97867.69;5038100;28;20155;-75
2022/04/07 10:22:27;;;;;;;5.40;3.00;;;;;;;20.50;35.44;97858.00;5068470;28;20100;-75
2022/04/07 10:25:01;;;;;;;6.03;2.92;;;;;;;20.40;35.61;97861.25;5068789;28;20075;-78
2022/04/07 10:27:30;;;;;;;5.93;4.00;;;;;;;20.46;35.50;97860.34;5068860;28;20083;-77
2022/04/07 10:30:10;;;;;;;3.53;2.95;;;;;;;20.41;35.83;97847.63;5070988;28;20060;-78
2022/04/07 10:32:40;;;;;;;4.85;3.15;;;;;;;20.47;35.71;97850.44;5065499;28;20049;-77
2022/04/07 10:35:09;;;;;;;5.05;2.97;;;;;;;20.60;35.49;97860.94;5064427;28;20045;-77
2022/04/07 10:37:44;;;;;;;4.90;2.92;;;;;;;20.69;34.82;97846.13;5064826;28;20041;-76
2022/04/07 10:40:40;;;;;;;5.75;3.25;;;;;;;20.87;34.71;97842.50;5061124;28;20391;-75
2022/04/07 10:43:09;;;;;;;;;;;;;;;20.97;34.87;97840.00;5063031;28;20191;-77
2022/04/07 10:45:38;;;;;;;5.30;3.42;;;;;;;20.38;35.25;97829.34;5062042;28;19920;-76
2022/04/07 10:48:28;;;;;;;5.05;2.92;;;;;;;20.66;35.55;97833.19;5063713;28;20036;-78
2022/04/07 10:50:57;;;;;;;6.57;4.10;;;;;;;20.80;35.25;97829.19;5063829;28;20445;-79
2022/04/07 10:53:27;;;;;;;4.65;2.58;;;;;;;21.14;34.53;97821.28;5063169;28;20199;-77
2022/04/07 10:55:56;;;;;;;4.68;3.00;;;;;;;21.13;34.29;97808.91;5062748;28;20041;-77
2022/04/07 10:58:48;;;;;;;4.93;3.17;;;;;;;21.05;34.15;97801.25;5064089;28;20469;-76
2022/04/07 11:01:48;;;;;;;5.22;2.92;;;;;;;20.78;34.61;97798.31;5067086;28;20052;-75
2022/04/07 11:04:37;;;;;;;4.88;3.42;;;;;;;20.73;35.07;97799.00;5067261;28;20492;-78
2022/04/07 11:07:15;;;;;;;4.90;2.63;;;;;;;20.81;35.25;97785.25;5063527;28;20139;-80
2022/04/07 11:09:46;;;;;;;4.72;3.03;;;;;;;20.82;34.73;97794.09;5061293;28;20048;-76
2022/04/07 11:12:18;;;;;;;4.57;3.05;;;;;;;20.81;35.00;97801.34;5015293;28;1377667;-76
2022/04/07 11:14:46;;;;;;;4.10;3.03;;;;;;;20.63;34.83;97790.75;5062797;28;20098;-78
2022/04/07 11:17:24;;;;;;;5.60;3.70;;;;;;;20.63;34.96;97804.16;5066090;28;20468;-77
2022/04/07 11:20:05;;;;;;;3.53;2.15;;;;;;;20.69;34.35;97797.03;5063415;28;20040;-77
2022/04/07 11:22:50;;;;;;;6.55;2.70;;;;;;;20.77;34.23;97796.66;5065156;28;20040;-78
2022/04/07 11:25:22;;;;;;;4.28;2.47;;;;;;;21.06;33.89;97792.13;5063663;28;20738;-76
2022/04/07 11:28:04;;;;;;;6.07;2.55;;;;;;;21.28;34.00;97794.13;5063527;28;20130;-75
2022/04/07 11:30:38;;;;;;;4.68;2.70;;;;;;;21.15;33.86;97790.69;5061410;28;20143;-74
2022/04/07 11:33:27;;;;;;;3.30;2.80;;;;;;;21.12;33.27;97793.03;5061816;28;20047;-78
2022/04/07 11:36:15;;;;;;;6.50;3.30;;;;;;;20.83;33.86;97795.69;5064949;28;20131;-80
2022/04/07 11:38:46;;;;;;;6.10;2.00;;;;;;;20.52;34.20;97783.50;5062069;28;20118;-74